Aviation Digital Data Service (ADDS)

Output produced by METARs form (1536 UTC 25 February 2018)
found at http://www.aviationweather.gov/adds/metars/
 
METAR text: KPIT 251518Z 26014G27KT 10SM FEW015 SCT026 OVC044 14/09 A2984 RMK AO2 PK WND 24027/1516 RAE16 P0001 T01390089 $
Conditions at: KPIT (PITTSBURGH , PA, US) observed 1518 UTC 25 February 2018
Temperature: 13.9°C (57°F)
Dewpoint: 8.9°C (48°F) [RH = 72%]
Pressure (altimeter): 29.84 inches Hg (1010.6 mb)
Winds: from the W (260 degrees) at 16 MPH (14 knots; 7.3 m/s)
gusting to 31 MPH (27 knots; 14.0 m/s)
Visibility: 10 or more miles (16+ km)
Ceiling: 4400 feet AGL
Clouds: few clouds at 1500 feet AGL
scattered clouds at 2600 feet AGL
overcast cloud deck at 4400 feet AGL
Weather:
SOME DATA ABOVE MAY BE INACCURATE!!!
"$" is an indication the sensor requires maintenance

METAR text: KPIT 251451Z 26007KT 3SM -RA BR BKN018 BKN024 OVC033 14/13 A2982 RMK AO2 RAB31 SLP107 P0006 60006 T01390128 53036 $
Conditions at: KPIT (PITTSBURGH , PA, US) observed 1451 UTC 25 February 2018
Temperature: 13.9°C (57°F)
Dewpoint: 12.8°C (55°F) [RH = 93%]
Pressure (altimeter): 29.82 inches Hg (1009.9 mb)
[Sea-level pressure: 1010.7 mb]
Winds: from the W (260 degrees) at 8 MPH (7 knots; 3.6 m/s)
Visibility: 3 miles (5 km)
Ceiling: 1800 feet AGL
Clouds: broken clouds at 1800 feet AGL
broken clouds at 2400 feet AGL
overcast cloud deck at 3300 feet AGL
Weather: -RA BR  (light rain, mist)
SOME DATA ABOVE MAY BE INACCURATE!!!
"$" is an indication the sensor requires maintenance

METAR text: KPIT 251351Z 22011G22KT 10SM BKN022 OVC030 15/12 A2977 RMK AO2 SLP089 T01500117 $
Conditions at: KPIT (PITTSBURGH , PA, US) observed 1351 UTC 25 February 2018
Temperature: 15.0°C (59°F)
Dewpoint: 11.7°C (53°F) [RH = 81%]
Pressure (altimeter): 29.77 inches Hg (1008.2 mb)
[Sea-level pressure: 1008.9 mb]
Winds: from the SW (220 degrees) at 13 MPH (11 knots; 5.7 m/s)
gusting to 25 MPH (22 knots; 11.4 m/s)
Visibility: 10 or more miles (16+ km)
Ceiling: 2200 feet AGL
Clouds: broken clouds at 2200 feet AGL
overcast cloud deck at 3000 feet AGL
Weather:
SOME DATA ABOVE MAY BE INACCURATE!!!
"$" is an indication the sensor requires maintenance

METAR text: KPIT 251251Z 22013G21KT 10SM BKN027 OVC035 16/12 A2976 RMK AO2 PK WND 21028/1233 SLP085 T01560117 $
Conditions at: KPIT (PITTSBURGH , PA, US) observed 1251 UTC 25 February 2018
Temperature: 15.6°C (60°F)
Dewpoint: 11.7°C (53°F) [RH = 78%]
Pressure (altimeter): 29.76 inches Hg (1007.9 mb)
[Sea-level pressure: 1008.5 mb]
Winds: from the SW (220 degrees) at 15 MPH (13 knots; 6.8 m/s)
gusting to 24 MPH (21 knots; 10.9 m/s)
Visibility: 10 or more miles (16+ km)
Ceiling: 2700 feet AGL
Clouds: broken clouds at 2700 feet AGL
overcast cloud deck at 3500 feet AGL
Weather:
SOME DATA ABOVE MAY BE INACCURATE!!!
"$" is an indication the sensor requires maintenance

METAR text: KPIT 251237Z 22012G28KT 10SM BKN029 BKN042 OVC120 16/12 A2974 RMK AO2 PK WND 21028/1233 T01560117 $
Conditions at: KPIT (PITTSBURGH , PA, US) observed 1237 UTC 25 February 2018
Temperature: 15.6°C (60°F)
Dewpoint: 11.7°C (53°F) [RH = 78%]
Pressure (altimeter): 29.74 inches Hg (1007.2 mb)
Winds: from the SW (220 degrees) at 14 MPH (12 knots; 6.2 m/s)
gusting to 32 MPH (28 knots; 14.6 m/s)
Visibility: 10 or more miles (16+ km)
Ceiling: 2900 feet AGL
Clouds: broken clouds at 2900 feet AGL
broken clouds at 4200 feet AGL
overcast cloud deck at 12000 feet AGL
Weather:
SOME DATA ABOVE MAY BE INACCURATE!!!
"$" is an indication the sensor requires maintenance

METAR text: KPIT 251151Z 21016G23KT 10SM FEW090 OVC130 16/12 A2971 RMK AO2 SLP069 60029 70069 T01560117 10156 20094 55005 $
Conditions at: KPIT (PITTSBURGH , PA, US) observed 1151 UTC 25 February 2018
Temperature: 15.6°C (60°F)
Dewpoint: 11.7°C (53°F) [RH = 78%]
Pressure (altimeter): 29.71 inches Hg (1006.2 mb)
[Sea-level pressure: 1006.9 mb]
Winds: from the SSW (210 degrees) at 18 MPH (16 knots; 8.3 m/s)
gusting to 26 MPH (23 knots; 12.0 m/s)
Visibility: 10 or more miles (16+ km)
Ceiling: 13000 feet AGL
Clouds: few clouds at 9000 feet AGL
overcast cloud deck at 13000 feet AGL
Weather:
SOME DATA ABOVE MAY BE INACCURATE!!!
"$" is an indication the sensor requires maintenance

METAR text: KPIT 251051Z 20011G19KT 10SM OVC100 15/13 A2970 RMK AO2 RAE47 SLP064 P0001 T01500128 $
Conditions at: KPIT (PITTSBURGH , PA, US) observed 1051 UTC 25 February 2018
Temperature: 15.0°C (59°F)
Dewpoint: 12.8°C (55°F) [RH = 87%]
Pressure (altimeter): 29.70 inches Hg (1005.8 mb)
[Sea-level pressure: 1006.4 mb]
Winds: from the SSW (200 degrees) at 13 MPH (11 knots; 5.7 m/s)
gusting to 22 MPH (19 knots; 9.9 m/s)
Visibility: 10 or more miles (16+ km)
Ceiling: 10000 feet AGL
Clouds: overcast cloud deck at 10000 feet AGL
Weather:
SOME DATA ABOVE MAY BE INACCURATE!!!
"$" is an indication the sensor requires maintenance

METAR text: KPIT 250951Z 20009KT 10SM -RA OVC090 14/13 A2972 RMK AO2 RAB27 SLP071 P0002 T01390128 $
Conditions at: KPIT (PITTSBURGH , PA, US) observed 0951 UTC 25 February 2018
Temperature: 13.9°C (57°F)
Dewpoint: 12.8°C (55°F) [RH = 93%]
Pressure (altimeter): 29.72 inches Hg (1006.5 mb)
[Sea-level pressure: 1007.1 mb]
Winds: from the SSW (200 degrees) at 10 MPH (9 knots; 4.7 m/s)
Visibility: 10 or more miles (16+ km)
Ceiling: 9000 feet AGL
Clouds: overcast cloud deck at 9000 feet AGL
Weather: -RA  (light rain)
SOME DATA ABOVE MAY BE INACCURATE!!!
"$" is an indication the sensor requires maintenance

METAR text: KPIT 250931Z 17006KT 10SM -RA FEW006 SCT035 OVC090 13/12 A2972 RMK AO2 RAB27 P0000 T01280122 $
Conditions at: KPIT (PITTSBURGH , PA, US) observed 0931 UTC 25 February 2018
Temperature: 12.8°C (55°F)
Dewpoint: 12.2°C (54°F) [RH = 96%]
Pressure (altimeter): 29.72 inches Hg (1006.5 mb)
Winds: from the S (170 degrees) at 7 MPH (6 knots; 3.1 m/s)
Visibility: 10 or more miles (16+ km)
Ceiling: 9000 feet AGL
Clouds: few clouds at 600 feet AGL
scattered clouds at 3500 feet AGL
overcast cloud deck at 9000 feet AGL
Weather: -RA  (light rain)
SOME DATA ABOVE MAY BE INACCURATE!!!
"$" is an indication the sensor requires maintenance

METAR text: KPIT 250911Z 16010KT 10SM SCT007 BKN022 OVC045 12/12 A2973 RMK AO2 T01220117 $
Conditions at: KPIT (PITTSBURGH , PA, US) observed 0911 UTC 25 February 2018
Temperature: 12.2°C (54°F)
Dewpoint: 11.7°C (53°F) [RH = 97%]
Pressure (altimeter): 29.73 inches Hg (1006.9 mb)
Winds: from the SSE (160 degrees) at 12 MPH (10 knots; 5.2 m/s)
Visibility: 10 or more miles (16+ km)
Ceiling: 2200 feet AGL
Clouds: scattered clouds at 700 feet AGL
broken clouds at 2200 feet AGL
overcast cloud deck at 4500 feet AGL
Weather:
SOME DATA ABOVE MAY BE INACCURATE!!!
"$" is an indication the sensor requires maintenance

METAR text: KPIT 250851Z 16008KT 10SM SCT005 BKN033 OVC049 12/11 A2973 RMK AO2 RAE51 SLP076 P0004 60026 T01170111 58040 $
Conditions at: KPIT (PITTSBURGH , PA, US) observed 0851 UTC 25 February 2018
Temperature: 11.7°C (53°F)
Dewpoint: 11.1°C (52°F) [RH = 96%]
Pressure (altimeter): 29.73 inches Hg (1006.9 mb)
[Sea-level pressure: 1007.6 mb]
Winds: from the SSE (160 degrees) at 9 MPH (8 knots; 4.2 m/s)
Visibility: 10 or more miles (16+ km)
Ceiling: 3300 feet AGL
Clouds: scattered clouds at 500 feet AGL
broken clouds at 3300 feet AGL
overcast cloud deck at 4900 feet AGL
Weather:
SOME DATA ABOVE MAY BE INACCURATE!!!
"$" is an indication the sensor requires maintenance

METAR text: KPIT 250751Z 15009KT 7SM -RA BKN005 OVC085 11/10 A2977 RMK AO2 SLP091 P0007 T01060100 $
Conditions at: KPIT (PITTSBURGH , PA, US) observed 0751 UTC 25 February 2018
Temperature: 10.6°C (51°F)
Dewpoint: 10.0°C (50°F) [RH = 96%]
Pressure (altimeter): 29.77 inches Hg (1008.2 mb)
[Sea-level pressure: 1009.1 mb]
Winds: from the SSE (150 degrees) at 10 MPH (9 knots; 4.7 m/s)
Visibility: 7 miles (11 km)
Ceiling: 500 feet AGL
Clouds: broken clouds at 500 feet AGL
overcast cloud deck at 8500 feet AGL
Weather: -RA  (light rain)
SOME DATA ABOVE MAY BE INACCURATE!!!
"$" is an indication the sensor requires maintenance

METAR text: KPIT 250736Z 14008KT 9SM -RA BKN005 BKN046 OVC085 11/10 A2977 RMK AO2 P0006 T01060100 $
Conditions at: KPIT (PITTSBURGH , PA, US) observed 0736 UTC 25 February 2018
Temperature: 10.6°C (51°F)
Dewpoint: 10.0°C (50°F) [RH = 96%]
Pressure (altimeter): 29.77 inches Hg (1008.2 mb)
Winds: from the SE (140 degrees) at 9 MPH (8 knots; 4.2 m/s)
Visibility: 9 miles (14 km)
Ceiling: 500 feet AGL
Clouds: broken clouds at 500 feet AGL
broken clouds at 4600 feet AGL
overcast cloud deck at 8500 feet AGL
Weather: -RA  (light rain)
SOME DATA ABOVE MAY BE INACCURATE!!!
"$" is an indication the sensor requires maintenance

METAR text: KPIT 250651Z 14010KT 5SM -RA BR SCT012 BKN046 OVC080 10/09 A2982 RMK AO2 CIG 034 SE SLP107 P0015 T01000089 $
Conditions at: KPIT (PITTSBURGH , PA, US) observed 0651 UTC 25 February 2018
Temperature: 10.0°C (50°F)
Dewpoint: 8.9°C (48°F) [RH = 93%]
Pressure (altimeter): 29.82 inches Hg (1009.9 mb)
[Sea-level pressure: 1010.7 mb]
Winds: from the SE (140 degrees) at 12 MPH (10 knots; 5.2 m/s)
Visibility: 5 miles (8 km)
Ceiling: 4600 feet AGL
Clouds: scattered clouds at 1200 feet AGL
broken clouds at 4600 feet AGL
overcast cloud deck at 8000 feet AGL
Weather: -RA BR  (light rain, mist)
SOME DATA ABOVE MAY BE INACCURATE!!!
"$" is an indication the sensor requires maintenance

METAR text: KPIT 250633Z 15009KT 5SM RA BR FEW008 BKN015 OVC047 09/09 A2983 RMK AO2 P0013 T00940089 $
Conditions at: KPIT (PITTSBURGH , PA, US) observed 0633 UTC 25 February 2018
Temperature: 9.4°C (49°F)
Dewpoint: 8.9°C (48°F) [RH = 97%]
Pressure (altimeter): 29.83 inches Hg (1010.2 mb)
Winds: from the SSE (150 degrees) at 10 MPH (9 knots; 4.7 m/s)
Visibility: 5 miles (8 km)
Ceiling: 1500 feet AGL
Clouds: few clouds at 800 feet AGL
broken clouds at 1500 feet AGL
overcast cloud deck at 4700 feet AGL
Weather: RA BR  (rain, mist)
SOME DATA ABOVE MAY BE INACCURATE!!!
"$" is an indication the sensor requires maintenance

METAR text: KPIT 250551Z 14006KT 9SM -RA SCT042 BKN055 BKN070 09/08 A2985 RMK AO2 RAB48 SLP119 P0000 60023 T00940083 10094 20078 56035
Conditions at: KPIT (PITTSBURGH , PA, US) observed 0551 UTC 25 February 2018
Temperature: 9.4°C (49°F)
Dewpoint: 8.3°C (47°F) [RH = 93%]
Pressure (altimeter): 29.85 inches Hg (1010.9 mb)
[Sea-level pressure: 1011.9 mb]
Winds: from the SE (140 degrees) at 7 MPH (6 knots; 3.1 m/s)
Visibility: 9 miles (14 km)
Ceiling: 5500 feet AGL
Clouds: scattered clouds at 4200 feet AGL
broken clouds at 5500 feet AGL
broken clouds at 7000 feet AGL
Weather: -RA  (light rain)

METAR text: KPIT 250539Z 11008KT 10SM SCT015 BKN060 BKN120 OVC140 09/08 A2983 RMK AO2 T00890083
Conditions at: KPIT (PITTSBURGH , PA, US) observed 0539 UTC 25 February 2018
Temperature: 8.9°C (48°F)
Dewpoint: 8.3°C (47°F) [RH = 96%]
Pressure (altimeter): 29.83 inches Hg (1010.2 mb)
Winds: from the ESE (110 degrees) at 9 MPH (8 knots; 4.2 m/s)
Visibility: 10 or more miles (16+ km)
Ceiling: 6000 feet AGL
Clouds: scattered clouds at 1500 feet AGL
broken clouds at 6000 feet AGL
broken clouds at 12000 feet AGL
overcast cloud deck at 14000 feet AGL
Weather: no significant weather observed at this time

METAR text: KPIT 250515Z 13008KT 10SM BKN015 OVC020 09/08 A2986 RMK AO2 T00890083
Conditions at: KPIT (PITTSBURGH , PA, US) observed 0515 UTC 25 February 2018
Temperature: 8.9°C (48°F)
Dewpoint: 8.3°C (47°F) [RH = 96%]
Pressure (altimeter): 29.86 inches Hg (1011.3 mb)
Winds: from the SE (130 degrees) at 9 MPH (8 knots; 4.2 m/s)
Visibility: 10 or more miles (16+ km)
Ceiling: 1500 feet AGL
Clouds: broken clouds at 1500 feet AGL
overcast cloud deck at 2000 feet AGL
Weather: no significant weather observed at this time

METAR text: KPIT 250451Z 12007KT 10SM OVC013 09/08 A2988 RMK AO2 RAE46 SLP129 P0001 T00890083 401500078 $
Conditions at: KPIT (PITTSBURGH , PA, US) observed 0451 UTC 25 February 2018
Temperature: 8.9°C (48°F)
Dewpoint: 8.3°C (47°F) [RH = 96%]
Pressure (altimeter): 29.88 inches Hg (1011.9 mb)
[Sea-level pressure: 1012.9 mb]
Winds: from the ESE (120 degrees) at 8 MPH (7 knots; 3.6 m/s)
Visibility: 10 or more miles (16+ km)
Ceiling: 1300 feet AGL
Clouds: overcast cloud deck at 1300 feet AGL
Weather:
SOME DATA ABOVE MAY BE INACCURATE!!!
"$" is an indication the sensor requires maintenance

METAR text: KPIT 250351Z 12008KT 7SM -RA OVC013 08/08 A2991 RMK AO2 SLP140 P0005 T00830078
Conditions at: KPIT (PITTSBURGH , PA, US) observed 0351 UTC 25 February 2018
Temperature: 8.3°C (47°F)
Dewpoint: 7.8°C (46°F) [RH = 97%]
Pressure (altimeter): 29.91 inches Hg (1013.0 mb)
[Sea-level pressure: 1014.0 mb]
Winds: from the ESE (120 degrees) at 9 MPH (8 knots; 4.2 m/s)
Visibility: 7 miles (11 km)
Ceiling: 1300 feet AGL
Clouds: overcast cloud deck at 1300 feet AGL
Weather: -RA  (light rain)

METAR text: KPIT 250251Z 12008KT 5SM -RA BR BKN016 BKN036 OVC043 08/07 A2996 RMK AO2 RAB02 SLP156 P0016 60017 T00780072 56027
Conditions at: KPIT (PITTSBURGH , PA, US) observed 0251 UTC 25 February 2018
Temperature: 7.8°C (46°F)
Dewpoint: 7.2°C (45°F) [RH = 96%]
Pressure (altimeter): 29.96 inches Hg (1014.6 mb)
[Sea-level pressure: 1015.6 mb]
Winds: from the ESE (120 degrees) at 9 MPH (8 knots; 4.2 m/s)
Visibility: 5 miles (8 km)
Ceiling: 1600 feet AGL
Clouds: broken clouds at 1600 feet AGL
broken clouds at 3600 feet AGL
overcast cloud deck at 4300 feet AGL
Weather: -RA BR  (light rain, mist)

METAR text: KPIT 250221Z 11007KT 5SM -RA BR FEW006 BKN019 BKN055 08/07 A2997 RMK AO2 RAB02 P0003 T00780072
Conditions at: KPIT (PITTSBURGH , PA, US) observed 0221 UTC 25 February 2018
Temperature: 7.8°C (46°F)
Dewpoint: 7.2°C (45°F) [RH = 96%]
Pressure (altimeter): 29.97 inches Hg (1015.0 mb)
Winds: from the ESE (110 degrees) at 8 MPH (7 knots; 3.6 m/s)
Visibility: 5 miles (8 km)
Ceiling: 1900 feet AGL
Clouds: few clouds at 600 feet AGL
broken clouds at 1900 feet AGL
broken clouds at 5500 feet AGL
Weather: -RA BR  (light rain, mist)

METAR text: KPIT 250151Z 10008KT 10SM FEW012 OVC021 08/07 A2998 RMK AO2 RAE18 SLP164 P0001 T00780067
Conditions at: KPIT (PITTSBURGH , PA, US) observed 0151 UTC 25 February 2018
Temperature: 7.8°C (46°F)
Dewpoint: 6.7°C (44°F) [RH = 93%]
Pressure (altimeter): 29.98 inches Hg (1015.3 mb)
[Sea-level pressure: 1016.4 mb]
Winds: from the E (100 degrees) at 9 MPH (8 knots; 4.2 m/s)
Visibility: 10 or more miles (16+ km)
Ceiling: 2100 feet AGL
Clouds: few clouds at 1200 feet AGL
overcast cloud deck at 2100 feet AGL
Weather: no significant weather observed at this time

METAR text: KPIT 250120Z 08008KT 10SM SCT014 BKN023 OVC080 08/07 A3000 RMK AO2 RAE18 P0001 T00780067
Conditions at: KPIT (PITTSBURGH , PA, US) observed 0120 UTC 25 February 2018
Temperature: 7.8°C (46°F)
Dewpoint: 6.7°C (44°F) [RH = 93%]
Pressure (altimeter): 30.00 inches Hg (1016.0 mb)
Winds: from the E (80 degrees) at 9 MPH (8 knots; 4.2 m/s)
Visibility: 10 or more miles (16+ km)
Ceiling: 2300 feet AGL
Clouds: scattered clouds at 1400 feet AGL
broken clouds at 2300 feet AGL
overcast cloud deck at 8000 feet AGL
Weather: no significant weather observed at this time

METAR text: KPIT 250051Z 08008KT 10SM -RA OVC014 08/07 A3001 RMK AO2 RAB49 SLP175 P0000 T00830067
Conditions at: KPIT (PITTSBURGH , PA, US) observed 0051 UTC 25 February 2018
Temperature: 8.3°C (47°F)
Dewpoint: 6.7°C (44°F) [RH = 90%]
Pressure (altimeter): 30.01 inches Hg (1016.3 mb)
[Sea-level pressure: 1017.5 mb]
Winds: from the E (80 degrees) at 9 MPH (8 knots; 4.2 m/s)
Visibility: 10 or more miles (16+ km)
Ceiling: 1400 feet AGL
Clouds: overcast cloud deck at 1400 feet AGL
Weather: -RA  (light rain)

METAR text: KPIT 242351Z 05007KT 10SM OVC012 08/07 A3004 RMK AO2 SLP183 60000 T00830072 10089 20078 53003
Conditions at: KPIT (PITTSBURGH , PA, US) observed 2351 UTC 24 February 2018
Temperature: 8.3°C (47°F)
Dewpoint: 7.2°C (45°F) [RH = 93%]
Pressure (altimeter): 30.04 inches Hg (1017.4 mb)
[Sea-level pressure: 1018.3 mb]
Winds: from the NE (50 degrees) at 8 MPH (7 knots; 3.6 m/s)
Visibility: 10 or more miles (16+ km)
Ceiling: 1200 feet AGL
Clouds: overcast cloud deck at 1200 feet AGL
Weather: no significant weather observed at this time

METAR text: KPIT 242251Z 07005KT 10SM OVC012 09/07 A3004 RMK AO2 SLP183 T00890072
Conditions at: KPIT (PITTSBURGH , PA, US) observed 2251 UTC 24 February 2018
Temperature: 8.9°C (48°F)
Dewpoint: 7.2°C (45°F) [RH = 89%]
Pressure (altimeter): 30.04 inches Hg (1017.4 mb)
[Sea-level pressure: 1018.3 mb]
Winds: from the ENE (70 degrees) at 6 MPH (5 knots; 2.6 m/s)
Visibility: 10 or more miles (16+ km)
Ceiling: 1200 feet AGL
Clouds: overcast cloud deck at 1200 feet AGL
Weather: no significant weather observed at this time

METAR text: KPIT 242217Z 09007KT 10SM BKN011 BKN060 OVC090 09/07 A3003 RMK AO2 T00890067
Conditions at: KPIT (PITTSBURGH , PA, US) observed 2217 UTC 24 February 2018
Temperature: 8.9°C (48°F)
Dewpoint: 6.7°C (44°F) [RH = 86%]
Pressure (altimeter): 30.03 inches Hg (1017.0 mb)
Winds: from the E (90 degrees) at 8 MPH (7 knots; 3.6 m/s)
Visibility: 10 or more miles (16+ km)
Ceiling: 1100 feet AGL
Clouds: broken clouds at 1100 feet AGL
broken clouds at 6000 feet AGL
overcast cloud deck at 9000 feet AGL
Weather: no significant weather observed at this time

METAR text: KPIT 242151Z 10011KT 10SM FEW012 BKN065 OVC090 09/07 A3002 RMK AO2 SLP177 T00890072
Conditions at: KPIT (PITTSBURGH , PA, US) observed 2151 UTC 24 February 2018
Temperature: 8.9°C (48°F)
Dewpoint: 7.2°C (45°F) [RH = 89%]
Pressure (altimeter): 30.02 inches Hg (1016.7 mb)
[Sea-level pressure: 1017.7 mb]
Winds: from the E (100 degrees) at 13 MPH (11 knots; 5.7 m/s)
Visibility: 10 or more miles (16+ km)
Ceiling: 6500 feet AGL
Clouds: few clouds at 1200 feet AGL
broken clouds at 6500 feet AGL
overcast cloud deck at 9000 feet AGL
Weather: no significant weather observed at this time

METAR text: KPIT 242121Z 10009KT 10SM SCT010 SCT016 OVC065 08/07 A3004 RMK AO2 T00830072
Conditions at: KPIT (PITTSBURGH , PA, US) observed 2121 UTC 24 February 2018
Temperature: 8.3°C (47°F)
Dewpoint: 7.2°C (45°F) [RH = 93%]
Pressure (altimeter): 30.04 inches Hg (1017.4 mb)
Winds: from the E (100 degrees) at 10 MPH (9 knots; 4.7 m/s)
Visibility: 10 or more miles (16+ km)
Ceiling: 6500 feet AGL
Clouds: scattered clouds at 1000 feet AGL
scattered clouds at 1600 feet AGL
overcast cloud deck at 6500 feet AGL
Weather: no significant weather observed at this time

METAR text: KPIT 242051Z 10010KT 10SM OVC010 08/07 A3003 RMK AO2 RAB07E22DZB22E33 SLP180 P0000 60000 T00830072 58033
Conditions at: KPIT (PITTSBURGH , PA, US) observed 2051 UTC 24 February 2018
Temperature: 8.3°C (47°F)
Dewpoint: 7.2°C (45°F) [RH = 93%]
Pressure (altimeter): 30.03 inches Hg (1017.0 mb)
[Sea-level pressure: 1018.0 mb]
Winds: from the E (100 degrees) at 12 MPH (10 knots; 5.2 m/s)
Visibility: 10 or more miles (16+ km)
Ceiling: 1000 feet AGL
Clouds: overcast cloud deck at 1000 feet AGL
Weather: no significant weather observed at this time

METAR text: KPIT 242044Z 10008KT 10SM OVC010 08/07 A3003 RMK AO2 RAB07E22DZB22E33 P0000 T00830072
Conditions at: KPIT (PITTSBURGH , PA, US) observed 2044 UTC 24 February 2018
Temperature: 8.3°C (47°F)
Dewpoint: 7.2°C (45°F) [RH = 93%]
Pressure (altimeter): 30.03 inches Hg (1017.0 mb)
Winds: from the E (100 degrees) at 9 MPH (8 knots; 4.2 m/s)
Visibility: 10 or more miles (16+ km)
Ceiling: 1000 feet AGL
Clouds: overcast cloud deck at 1000 feet AGL
Weather: no significant weather observed at this time

METAR text: KPIT 242023Z 09010KT 10SM -DZ BKN008 BKN035 OVC070 08/07 A3005 RMK AO2 RAB07E22DZB22 P0000 T00830072
Conditions at: KPIT (PITTSBURGH , PA, US) observed 2023 UTC 24 February 2018
Temperature: 8.3°C (47°F)
Dewpoint: 7.2°C (45°F) [RH = 93%]
Pressure (altimeter): 30.05 inches Hg (1017.7 mb)
Winds: from the E (90 degrees) at 12 MPH (10 knots; 5.2 m/s)
Visibility: 10 or more miles (16+ km)
Ceiling: 800 feet AGL
Clouds: broken clouds at 800 feet AGL
broken clouds at 3500 feet AGL
overcast cloud deck at 7000 feet AGL
Weather: -DZ  (light drizzle)

METAR text: KPIT 241951Z 11008KT 10SM SCT006 BKN034 OVC070 08/07 A3006 RMK AO2 DZE46 SLP188 P0000 T00830072
Conditions at: KPIT (PITTSBURGH , PA, US) observed 1951 UTC 24 February 2018
Temperature: 8.3°C (47°F)
Dewpoint: 7.2°C (45°F) [RH = 93%]
Pressure (altimeter): 30.06 inches Hg (1018.0 mb)
[Sea-level pressure: 1018.8 mb]
Winds: from the ESE (110 degrees) at 9 MPH (8 knots; 4.2 m/s)
Visibility: 10 or more miles (16+ km)
Ceiling: 3400 feet AGL
Clouds: scattered clouds at 600 feet AGL
broken clouds at 3400 feet AGL
overcast cloud deck at 7000 feet AGL
Weather: no significant weather observed at this time

METAR text: KPIT 241851Z 03008KT 8SM -DZ FEW007 BKN035 OVC060 08/07 A3011 RMK AO2 RAE33DZB33 SLP207 P0000 T00830072
Conditions at: KPIT (PITTSBURGH , PA, US) observed 1851 UTC 24 February 2018
Temperature: 8.3°C (47°F)
Dewpoint: 7.2°C (45°F) [RH = 93%]
Pressure (altimeter): 30.11 inches Hg (1019.7 mb)
[Sea-level pressure: 1020.7 mb]
Winds: from the NNE (30 degrees) at 9 MPH (8 knots; 4.2 m/s)
Visibility: 8 miles (13 km)
Ceiling: 3500 feet AGL
Clouds: few clouds at 700 feet AGL
broken clouds at 3500 feet AGL
overcast cloud deck at 6000 feet AGL
Weather: -DZ  (light drizzle)

METAR text: KPIT 241823Z 06005KT 7SM -RA SCT006 BKN041 OVC065 08/07 A3011 RMK AO2 P0000 T00830072
Conditions at: KPIT (PITTSBURGH , PA, US) observed 1823 UTC 24 February 2018
Temperature: 8.3°C (47°F)
Dewpoint: 7.2°C (45°F) [RH = 93%]
Pressure (altimeter): 30.11 inches Hg (1019.7 mb)
Winds: from the ENE (60 degrees) at 6 MPH (5 knots; 2.6 m/s)
Visibility: 7 miles (11 km)
Ceiling: 4100 feet AGL
Clouds: scattered clouds at 600 feet AGL
broken clouds at 4100 feet AGL
overcast cloud deck at 6500 feet AGL
Weather: -RA  (light rain)

METAR text: KPIT 241751Z 07005KT 4SM -RA BR BKN006 BKN026 OVC065 08/07 A3013 RMK AO2 SLP213 P0008 60017 T00780072 10083 20078 56012
Conditions at: KPIT (PITTSBURGH , PA, US) observed 1751 UTC 24 February 2018
Temperature: 7.8°C (46°F)
Dewpoint: 7.2°C (45°F) [RH = 96%]
Pressure (altimeter): 30.13 inches Hg (1020.4 mb)
[Sea-level pressure: 1021.3 mb]
Winds: from the ENE (70 degrees) at 6 MPH (5 knots; 2.6 m/s)
Visibility: 4 miles (6 km)
Ceiling: 600 feet AGL
Clouds: broken clouds at 600 feet AGL
broken clouds at 2600 feet AGL
overcast cloud deck at 6500 feet AGL
Weather: -RA BR  (light rain, mist)

METAR text: KPIT 241724Z 05005KT 2 1/2SM -RA BR BKN008 BKN044 OVC065 08/07 A3014 RMK AO2 P0007 T00830072
Conditions at: KPIT (PITTSBURGH , PA, US) observed 1724 UTC 24 February 2018
Temperature: 8.3°C (47°F)
Dewpoint: 7.2°C (45°F) [RH = 93%]
Pressure (altimeter): 30.14 inches Hg (1020.7 mb)
Winds: from the NE (50 degrees) at 6 MPH (5 knots; 2.6 m/s)
Visibility: 2.50 miles (4.02 km)
Ceiling: 800 feet AGL
Clouds: broken clouds at 800 feet AGL
broken clouds at 4400 feet AGL
overcast cloud deck at 6500 feet AGL
Weather: -RA BR  (light rain, mist)

METAR text: KPIT 241651Z 09004KT 3SM -RA BR FEW009 OVC055 08/07 A3013 RMK AO2 SLP213 P0005 T00780072
Conditions at: KPIT (PITTSBURGH , PA, US) observed 1651 UTC 24 February 2018
Temperature: 7.8°C (46°F)
Dewpoint: 7.2°C (45°F) [RH = 96%]
Pressure (altimeter): 30.13 inches Hg (1020.4 mb)
[Sea-level pressure: 1021.3 mb]
Winds: from the E (90 degrees) at 5 MPH (4 knots; 2.1 m/s)
Visibility: 3 miles (5 km)
Ceiling: 5500 feet AGL
Clouds: few clouds at 900 feet AGL
overcast cloud deck at 5500 feet AGL
Weather: -RA BR  (light rain, mist)

METAR text: KPIT 241551Z 05007KT 10SM -RA FEW008 OVC050 08/06 A3013 RMK AO2 RAB19 SLP212 P0000 T00780061
Conditions at: KPIT (PITTSBURGH , PA, US) observed 1551 UTC 24 February 2018
Temperature: 7.8°C (46°F)
Dewpoint: 6.1°C (43°F) [RH = 89%]
Pressure (altimeter): 30.13 inches Hg (1020.4 mb)
[Sea-level pressure: 1021.2 mb]
Winds: from the NE (50 degrees) at 8 MPH (7 knots; 3.6 m/s)
Visibility: 10 or more miles (16+ km)
Ceiling: 5000 feet AGL
Clouds: few clouds at 800 feet AGL
overcast cloud deck at 5000 feet AGL
Weather: -RA  (light rain)